sensor_id;sensor_type;location;lat;lon;timestamp;temperature;humidity
20481;DHT22;10399;50.754;3.366;2023-02-01T00:00:31;9.40;99.90
20481;DHT22;10399;50.754;3.366;2023-02-01T00:03:00;9.30;99.90
20481;DHT22;10399;50.754;3.366;2023-02-01T00:05:27;9.50;99.90
20481;DHT22;10399;50.754;3.366;2023-02-01T00:07:54;9.40;99.90
20481;DHT22;10399;50.754;3.366;2023-02-01T00:10:21;9.30;99.90
20481;DHT22;10399;50.754;3.366;2023-02-01T00:12:48;9.20;99.90
20481;DHT22;10399;50.754;3.366;2023-02-01T00:15:15;9.20;99.90
20481;DHT22;10399;50.754;3.366;2023-02-01T00:17:42;9.10;99.90
20481;DHT22;10399;50.754;3.366;2023-02-01T00:20:10;9.00;99.90
20481;DHT22;10399;50.754;3.366;2023-02-01T00:22:37;9.00;99.90
20481;DHT22;10399;50.754;3.366;2023-02-01T00:25:04;9.10;99.90
20481;DHT22;10399;50.754;3.366;2023-02-01T00:27:32;9.10;99.90
20481;DHT22;10399;50.754;3.366;2023-02-01T00:29:59;9.20;99.90
20481;DHT22;10399;50.754;3.366;2023-02-01T00:32:26;9.10;99.90
20481;DHT22;10399;50.754;3.366;2023-02-01T00:34:53;9.10;99.90
20481;DHT22;10399;50.754;3.366;2023-02-01T00:37:20;9.10;99.90
20481;DHT22;10399;50.754;3.366;2023-02-01T00:39:47;9.00;99.90
20481;DHT22;10399;50.754;3.366;2023-02-01T00:42:13;9.10;99.90
20481;DHT22;10399;50.754;3.366;2023-02-01T00:44:40;9.00;99.90
20481;DHT22;10399;50.754;3.366;2023-02-01T00:47:07;9.10;99.90
20481;DHT22;10399;50.754;3.366;2023-02-01T00:49:34;9.00;99.90
20481;DHT22;10399;50.754;3.366;2023-02-01T00:52:01;9.00;99.90
20481;DHT22;10399;50.754;3.366;2023-02-01T00:54:29;9.10;99.90
20481;DHT22;10399;50.754;3.366;2023-02-01T00:56:55;8.90;99.90
20481;DHT22;10399;50.754;3.366;2023-02-01T00:59:22;8.90;99.90
20481;DHT22;10399;50.754;3.366;2023-02-01T01:01:49;9.00;99.90
20481;DHT22;10399;50.754;3.366;2023-02-01T01:04:16;9.10;99.90
20481;DHT22;10399;50.754;3.366;2023-02-01T01:06:43;9.20;99.90
20481;DHT22;10399;50.754;3.366;2023-02-01T01:09:10;9.20;99.90
20481;DHT22;10399;50.754;3.366;2023-02-01T01:11:38;9.10;99.90
20481;DHT22;10399;50.754;3.366;2023-02-01T01:14:06;9.10;99.90
20481;DHT22;10399;50.754;3.366;2023-02-01T01:16:34;9.10;99.90
20481;DHT22;10399;50.754;3.366;2023-02-01T01:19:01;9.10;99.90
20481;DHT22;10399;50.754;3.366;2023-02-01T01:21:29;9.00;99.90
20481;DHT22;10399;50.754;3.366;2023-02-01T01:23:56;8.80;99.90
20481;DHT22;10399;50.754;3.366;2023-02-01T01:26:28;8.60;99.90
20481;DHT22;10399;50.754;3.366;2023-02-01T01:28:56;8.70;99.90
20481;DHT22;10399;50.754;3.366;2023-02-01T01:31:24;8.30;99.90
20481;DHT22;10399;50.754;3.366;2023-02-01T01:33:55;8.50;99.90
20481;DHT22;10399;50.754;3.366;2023-02-01T01:36:24;8.40;99.90
20481;DHT22;10399;50.754;3.366;2023-02-01T01:38:52;8.40;99.90
20481;DHT22;10399;50.754;3.366;2023-02-01T01:41:22;8.40;99.90
20481;DHT22;10399;50.754;3.366;2023-02-01T01:43:58;8.40;99.90
20481;DHT22;10399;50.754;3.366;2023-02-01T01:46:32;8.40;99.90
20481;DHT22;10399;50.754;3.366;2023-02-01T01:49:08;8.50;99.90
20481;DHT22;10399;50.754;3.366;2023-02-01T01:51:44;8.60;99.90
20481;DHT22;10399;50.754;3.366;2023-02-01T01:54:45;8.40;99.90
20481;DHT22;10399;50.754;3.366;2023-02-01T01:57:41;8.40;99.90
20481;DHT22;10399;50.754;3.366;2023-02-01T02:00:14;8.50;99.90
20481;DHT22;10399;50.754;3.366;2023-02-01T02:02:45;8.50;99.90
20481;DHT22;10399;50.754;3.366;2023-02-01T02:05:14;8.40;99.90
20481;DHT22;10399;50.754;3.366;2023-02-01T02:07:45;8.20;99.90
20481;DHT22;10399;50.754;3.366;2023-02-01T02:10:14;8.10;99.90
20481;DHT22;10399;50.754;3.366;2023-02-01T02:12:43;8.10;99.90
20481;DHT22;10399;50.754;3.366;2023-02-01T02:15:13;8.10;99.90
20481;DHT22;10399;50.754;3.366;2023-02-01T02:18:19;8.10;99.90
20481;DHT22;10399;50.754;3.366;2023-02-01T02:21:15;8.10;99.90
20481;DHT22;10399;50.754;3.366;2023-02-01T02:24:09;8.10;99.90
20481;DHT22;10399;50.754;3.366;2023-02-01T02:35:47;7.90;99.90
20481;DHT22;10399;50.754;3.366;2023-02-01T02:38:43;7.70;99.90
20481;DHT22;10399;50.754;3.366;2023-02-01T02:44:10;7.70;99.90
20481;DHT22;10399;50.754;3.366;2023-02-01T02:47:02;7.60;99.90
20481;DHT22;10399;50.754;3.366;2023-02-01T02:49:54;7.80;99.90
20481;DHT22;10399;50.754;3.366;2023-02-01T02:52:50;7.70;99.90
20481;DHT22;10399;50.754;3.366;2023-02-01T02:55:38;7.70;99.90
20481;DHT22;10399;50.754;3.366;2023-02-01T02:58:07;7.80;99.90
20481;DHT22;10399;50.754;3.366;2023-02-01T03:00:54;7.80;99.90
20481;DHT22;10399;50.754;3.366;2023-02-01T03:03:42;7.80;99.90
20481;DHT22;10399;50.754;3.366;2023-02-01T03:06:36;7.70;99.90
20481;DHT22;10399;50.754;3.366;2023-02-01T03:09:20;7.70;99.90
20481;DHT22;10399;50.754;3.366;2023-02-01T03:11:50;7.80;99.90
20481;DHT22;10399;50.754;3.366;2023-02-01T03:14:41;7.70;99.90
20481;DHT22;10399;50.754;3.366;2023-02-01T03:17:14;7.70;99.90
20481;DHT22;10399;50.754;3.366;2023-02-01T03:19:46;7.70;99.90
20481;DHT22;10399;50.754;3.366;2023-02-01T03:22:24;7.80;99.90
20481;DHT22;10399;50.754;3.366;2023-02-01T03:25:02;7.80;99.90
20481;DHT22;10399;50.754;3.366;2023-02-01T03:27:36;7.90;99.90
20481;DHT22;10399;50.754;3.366;2023-02-01T03:30:22;8.10;99.90
20481;DHT22;10399;50.754;3.366;2023-02-01T03:32:54;8.00;99.90
20481;DHT22;10399;50.754;3.366;2023-02-01T03:38:20;8.00;99.90
20481;DHT22;10399;50.754;3.366;2023-02-01T03:41:01;8.10;99.90
20481;DHT22;10399;50.754;3.366;2023-02-01T03:43:34;8.00;99.90
20481;DHT22;10399;50.754;3.366;2023-02-01T03:46:06;7.80;99.90
20481;DHT22;10399;50.754;3.366;2023-02-01T03:48:35;7.70;99.90
20481;DHT22;10399;50.754;3.366;2023-02-01T03:51:07;7.90;99.90
20481;DHT22;10399;50.754;3.366;2023-02-01T03:53:36;7.70;99.90
20481;DHT22;10399;50.754;3.366;2023-02-01T03:56:03;7.70;99.90
20481;DHT22;10399;50.754;3.366;2023-02-01T03:58:31;7.60;99.90
20481;DHT22;10399;50.754;3.366;2023-02-01T04:01:00;7.50;99.90
20481;DHT22;10399;50.754;3.366;2023-02-01T04:03:28;7.40;99.90
20481;DHT22;10399;50.754;3.366;2023-02-01T04:05:55;7.50;99.90
20481;DHT22;10399;50.754;3.366;2023-02-01T04:08:23;7.40;99.90
20481;DHT22;10399;50.754;3.366;2023-02-01T04:10:50;7.30;99.90
20481;DHT22;10399;50.754;3.366;2023-02-01T04:13:25;7.30;99.90
20481;DHT22;10399;50.754;3.366;2023-02-01T04:15:54;7.40;99.90
20481;DHT22;10399;50.754;3.366;2023-02-01T04:18:21;7.40;99.90
20481;DHT22;10399;50.754;3.366;2023-02-01T04:20:50;7.40;99.90
20481;DHT22;10399;50.754;3.366;2023-02-01T04:23:17;7.20;99.90
20481;DHT22;10399;50.754;3.366;2023-02-01T04:25:44;7.20;99.90
20481;DHT22;10399;50.754;3.366;2023-02-01T04:28:11;7.30;99.90
20481;DHT22;10399;50.754;3.366;2023-02-01T04:30:42;7.40;99.90
20481;DHT22;10399;50.754;3.366;2023-02-01T04:33:12;7.30;99.90
20481;DHT22;10399;50.754;3.366;2023-02-01T04:35:40;7.30;99.90
20481;DHT22;10399;50.754;3.366;2023-02-01T04:38:07;7.20;99.90
20481;DHT22;10399;50.754;3.366;2023-02-01T04:40:34;7.10;99.90
20481;DHT22;10399;50.754;3.366;2023-02-01T04:43:04;7.20;99.90
20481;DHT22;10399;50.754;3.366;2023-02-01T04:45:32;7.30;99.90
20481;DHT22;10399;50.754;3.366;2023-02-01T04:48:02;7.20;99.90
20481;DHT22;10399;50.754;3.366;2023-02-01T04:50:28;7.20;99.90
20481;DHT22;10399;50.754;3.366;2023-02-01T04:52:55;7.20;99.90
20481;DHT22;10399;50.754;3.366;2023-02-01T04:55:22;7.10;99.90
20481;DHT22;10399;50.754;3.366;2023-02-01T04:57:49;7.10;99.90
20481;DHT22;10399;50.754;3.366;2023-02-01T05:00:17;7.00;99.90
20481;DHT22;10399;50.754;3.366;2023-02-01T05:02:44;7.10;99.90
20481;DHT22;10399;50.754;3.366;2023-02-01T05:05:10;7.00;99.90
20481;DHT22;10399;50.754;3.366;2023-02-01T05:07:37;6.90;99.90
20481;DHT22;10399;50.754;3.366;2023-02-01T05:10:05;7.10;99.90
20481;DHT22;10399;50.754;3.366;2023-02-01T05:12:32;7.10;99.90
20481;DHT22;10399;50.754;3.366;2023-02-01T05:15:18;7.20;99.90
20481;DHT22;10399;50.754;3.366;2023-02-01T05:17:45;7.20;99.90
20481;DHT22;10399;50.754;3.366;2023-02-01T05:20:12;6.90;99.90
20481;DHT22;10399;50.754;3.366;2023-02-01T05:22:40;7.00;99.90
20481;DHT22;10399;50.754;3.366;2023-02-01T05:25:07;6.90;99.90
20481;DHT22;10399;50.754;3.366;2023-02-01T05:27:34;6.90;99.90
20481;DHT22;10399;50.754;3.366;2023-02-01T05:30:03;6.90;99.90
20481;DHT22;10399;50.754;3.366;2023-02-01T05:32:31;6.90;99.90
20481;DHT22;10399;50.754;3.366;2023-02-01T05:34:58;6.90;99.90
20481;DHT22;10399;50.754;3.366;2023-02-01T05:37:25;6.90;99.90
20481;DHT22;10399;50.754;3.366;2023-02-01T05:39:52;7.10;99.90
20481;DHT22;10399;50.754;3.366;2023-02-01T05:42:20;7.00;99.90
20481;DHT22;10399;50.754;3.366;2023-02-01T05:44:47;7.00;99.90
20481;DHT22;10399;50.754;3.366;2023-02-01T05:47:16;7.00;99.90
20481;DHT22;10399;50.754;3.366;2023-02-01T05:49:46;7.10;99.90
20481;DHT22;10399;50.754;3.366;2023-02-01T05:52:16;7.00;99.90
20481;DHT22;10399;50.754;3.366;2023-02-01T05:54:46;7.00;99.90
20481;DHT22;10399;50.754;3.366;2023-02-01T05:57:16;7.00;99.90
20481;DHT22;10399;50.754;3.366;2023-02-01T05:59:43;7.10;99.90
20481;DHT22;10399;50.754;3.366;2023-02-01T06:02:13;7.00;99.90
20481;DHT22;10399;50.754;3.366;2023-02-01T06:04:40;7.00;99.90
20481;DHT22;10399;50.754;3.366;2023-02-01T06:07:08;7.00;99.90
20481;DHT22;10399;50.754;3.366;2023-02-01T06:09:37;6.90;99.90
20481;DHT22;10399;50.754;3.366;2023-02-01T06:12:04;6.80;99.90
20481;DHT22;10399;50.754;3.366;2023-02-01T06:14:31;6.80;99.90
20481;DHT22;10399;50.754;3.366;2023-02-01T06:16:58;6.90;99.90
20481;DHT22;10399;50.754;3.366;2023-02-01T06:19:25;6.90;99.90
20481;DHT22;10399;50.754;3.366;2023-02-01T06:21:52;7.00;99.90
20481;DHT22;10399;50.754;3.366;2023-02-01T06:24:19;6.90;99.90
20481;DHT22;10399;50.754;3.366;2023-02-01T06:26:47;6.90;99.90
20481;DHT22;10399;50.754;3.366;2023-02-01T06:29:15;7.00;99.90
20481;DHT22;10399;50.754;3.366;2023-02-01T06:31:42;7.00;99.90
20481;DHT22;10399;50.754;3.366;2023-02-01T06:34:09;7.00;99.90
20481;DHT22;10399;50.754;3.366;2023-02-01T06:36:36;7.00;99.90
20481;DHT22;10399;50.754;3.366;2023-02-01T06:39:03;6.90;99.90
20481;DHT22;10399;50.754;3.366;2023-02-01T06:41:30;6.90;99.90
20481;DHT22;10399;50.754;3.366;2023-02-01T06:43:57;6.90;99.90
20481;DHT22;10399;50.754;3.366;2023-02-01T06:46:24;7.00;99.90
20481;DHT22;10399;50.754;3.366;2023-02-01T06:48:51;7.00;99.90
20481;DHT22;10399;50.754;3.366;2023-02-01T06:51:26;7.00;99.90
20481;DHT22;10399;50.754;3.366;2023-02-01T06:53:53;6.90;99.90
20481;DHT22;10399;50.754;3.366;2023-02-01T06:56:20;7.10;99.90
20481;DHT22;10399;50.754;3.366;2023-02-01T06:58:48;7.20;99.90
20481;DHT22;10399;50.754;3.366;2023-02-01T07:01:15;7.10;99.90
20481;DHT22;10399;50.754;3.366;2023-02-01T07:03:46;6.90;99.90
20481;DHT22;10399;50.754;3.366;2023-02-01T07:06:14;7.00;99.90
20481;DHT22;10399;50.754;3.366;2023-02-01T07:08:41;7.00;99.90
20481;DHT22;10399;50.754;3.366;2023-02-01T07:11:12;6.90;99.90
20481;DHT22;10399;50.754;3.366;2023-02-01T07:13:39;6.90;99.90
20481;DHT22;10399;50.754;3.366;2023-02-01T07:16:10;7.00;99.90
20481;DHT22;10399;50.754;3.366;2023-02-01T07:18:37;6.90;99.90
20481;DHT22;10399;50.754;3.366;2023-02-01T07:21:04;6.80;99.90
20481;DHT22;10399;50.754;3.366;2023-02-01T07:23:32;6.90;99.90
20481;DHT22;10399;50.754;3.366;2023-02-01T07:26:01;6.90;99.90
20481;DHT22;10399;50.754;3.366;2023-02-01T07:28:30;7.00;99.90
20481;DHT22;10399;50.754;3.366;2023-02-01T07:31:09;7.00;99.90
20481;DHT22;10399;50.754;3.366;2023-02-01T07:33:37;6.80;99.90
20481;DHT22;10399;50.754;3.366;2023-02-01T07:36:06;7.00;99.90
20481;DHT22;10399;50.754;3.366;2023-02-01T07:38:33;7.10;99.90
20481;DHT22;10399;50.754;3.366;2023-02-01T07:41:02;7.00;99.90
20481;DHT22;10399;50.754;3.366;2023-02-01T07:43:29;7.00;99.90
20481;DHT22;10399;50.754;3.366;2023-02-01T07:45:56;7.10;99.90
20481;DHT22;10399;50.754;3.366;2023-02-01T07:48:25;7.00;99.90
20481;DHT22;10399;50.754;3.366;2023-02-01T07:51:06;7.20;99.90
20481;DHT22;10399;50.754;3.366;2023-02-01T07:53:35;7.10;99.90
20481;DHT22;10399;50.754;3.366;2023-02-01T07:56:03;7.00;99.90
20481;DHT22;10399;50.754;3.366;2023-02-01T07:58:30;6.90;99.90
20481;DHT22;10399;50.754;3.366;2023-02-01T08:00:57;7.00;99.90
20481;DHT22;10399;50.754;3.366;2023-02-01T08:03:43;7.00;99.90
20481;DHT22;10399;50.754;3.366;2023-02-01T08:06:09;6.90;99.90
20481;DHT22;10399;50.754;3.366;2023-02-01T08:08:37;7.00;99.90
20481;DHT22;10399;50.754;3.366;2023-02-01T08:11:05;7.10;99.90
20481;DHT22;10399;50.754;3.366;2023-02-01T08:13:34;7.10;99.90
20481;DHT22;10399;50.754;3.366;2023-02-01T08:16:04;7.00;99.90
20481;DHT22;10399;50.754;3.366;2023-02-01T08:18:32;7.00;99.90
20481;DHT22;10399;50.754;3.366;2023-02-01T08:21:08;7.10;99.90
20481;DHT22;10399;50.754;3.366;2023-02-01T08:23:37;7.20;99.90
20481;DHT22;10399;50.754;3.366;2023-02-01T08:26:09;7.20;99.90
20481;DHT22;10399;50.754;3.366;2023-02-01T08:28:38;7.40;99.90
20481;DHT22;10399;50.754;3.366;2023-02-01T08:31:11;7.40;99.90
20481;DHT22;10399;50.754;3.366;2023-02-01T08:33:42;7.30;99.90
20481;DHT22;10399;50.754;3.366;2023-02-01T08:36:10;7.30;99.90
20481;DHT22;10399;50.754;3.366;2023-02-01T08:38:39;7.40;99.90
20481;DHT22;10399;50.754;3.366;2023-02-01T08:41:11;7.50;99.90
20481;DHT22;10399;50.754;3.366;2023-02-01T08:43:38;7.40;99.90
20481;DHT22;10399;50.754;3.366;2023-02-01T08:46:06;7.50;99.90
20481;DHT22;10399;50.754;3.366;2023-02-01T08:48:33;7.50;99.90
20481;DHT22;10399;50.754;3.366;2023-02-01T08:51:07;7.60;99.90
20481;DHT22;10399;50.754;3.366;2023-02-01T08:53:35;7.60;99.90
20481;DHT22;10399;50.754;3.366;2023-02-01T08:56:03;7.50;99.90
20481;DHT22;10399;50.754;3.366;2023-02-01T08:58:30;7.60;99.90
20481;DHT22;10399;50.754;3.366;2023-02-01T09:01:10;7.70;99.90
20481;DHT22;10399;50.754;3.366;2023-02-01T09:03:39;7.60;99.90
20481;DHT22;10399;50.754;3.366;2023-02-01T09:06:12;7.50;99.90
20481;DHT22;10399;50.754;3.366;2023-02-01T09:08:40;7.60;99.90
20481;DHT22;10399;50.754;3.366;2023-02-01T09:11:11;7.80;99.90
20481;DHT22;10399;50.754;3.366;2023-02-01T09:13:39;7.80;99.90
20481;DHT22;10399;50.754;3.366;2023-02-01T09:16:06;7.80;99.90
20481;DHT22;10399;50.754;3.366;2023-02-01T09:18:33;7.90;99.90
20481;DHT22;10399;50.754;3.366;2023-02-01T09:21:05;8.00;99.90
20481;DHT22;10399;50.754;3.366;2023-02-01T09:23:32;7.80;99.90
20481;DHT22;10399;50.754;3.366;2023-02-01T09:26:01;7.90;99.90
20481;DHT22;10399;50.754;3.366;2023-02-01T09:28:28;8.10;99.90
20481;DHT22;10399;50.754;3.366;2023-02-01T09:30:57;8.10;99.90
20481;DHT22;10399;50.754;3.366;2023-02-01T09:33:26;8.30;99.90
20481;DHT22;10399;50.754;3.366;2023-02-01T09:36:00;8.30;99.90
20481;DHT22;10399;50.754;3.366;2023-02-01T09:38:28;8.40;99.90
20481;DHT22;10399;50.754;3.366;2023-02-01T09:40:55;8.40;99.90
20481;DHT22;10399;50.754;3.366;2023-02-01T09:43:42;8.40;99.90
20481;DHT22;10399;50.754;3.366;2023-02-01T09:48:56;8.30;99.90
20481;DHT22;10399;50.754;3.366;2023-02-01T09:51:34;8.40;99.90
20481;DHT22;10399;50.754;3.366;2023-02-01T09:54:09;8.30;99.90
20481;DHT22;10399;50.754;3.366;2023-02-01T09:56:58;8.40;99.90
20481;DHT22;10399;50.754;3.366;2023-02-01T10:02:03;8.60;99.90
20481;DHT22;10399;50.754;3.366;2023-02-01T10:04:31;8.70;99.90
20481;DHT22;10399;50.754;3.366;2023-02-01T10:07:18;8.90;99.90
20481;DHT22;10399;50.754;3.366;2023-02-01T10:12:48;9.50;99.90
20481;DHT22;10399;50.754;3.366;2023-02-01T10:26:47;10.10;99.90
20481;DHT22;10399;50.754;3.366;2023-02-01T10:29:23;10.10;99.90
20481;DHT22;10399;50.754;3.366;2023-02-01T10:31:52;10.10;99.90
20481;DHT22;10399;50.754;3.366;2023-02-01T10:34:28;10.10;99.90
20481;DHT22;10399;50.754;3.366;2023-02-01T10:36:57;10.00;99.90
20481;DHT22;10399;50.754;3.366;2023-02-01T10:39:26;9.90;99.90
20481;DHT22;10399;50.754;3.366;2023-02-01T10:41:55;10.10;99.90
20481;DHT22;10399;50.754;3.366;2023-02-01T10:44:28;10.10;99.90
20481;DHT22;10399;50.754;3.366;2023-02-01T10:46:56;10.10;99.90
20481;DHT22;10399;50.754;3.366;2023-02-01T10:49:37;10.10;99.90
20481;DHT22;10399;50.754;3.366;2023-02-01T10:54:38;10.30;99.90
20481;DHT22;10399;50.754;3.366;2023-02-01T10:57:25;10.40;99.90
20481;DHT22;10399;50.754;3.366;2023-02-01T10:59:55;10.50;99.90
20481;DHT22;10399;50.754;3.366;2023-02-01T11:02:29;10.60;99.90
20481;DHT22;10399;50.754;3.366;2023-02-01T11:05:12;10.50;99.90
20481;DHT22;10399;50.754;3.366;2023-02-01T11:07:48;10.50;99.90
20481;DHT22;10399;50.754;3.366;2023-02-01T11:10:36;10.70;99.90
20481;DHT22;10399;50.754;3.366;2023-02-01T11:13:04;10.80;99.90
20481;DHT22;10399;50.754;3.366;2023-02-01T11:15:31;10.80;99.90
20481;DHT22;10399;50.754;3.366;2023-02-01T11:18:14;11.00;99.90
20481;DHT22;10399;50.754;3.366;2023-02-01T11:20:42;11.20;99.90
20481;DHT22;10399;50.754;3.366;2023-02-01T11:23:15;11.50;99.90
20481;DHT22;10399;50.754;3.366;2023-02-01T11:25:54;11.40;99.90
20481;DHT22;10399;50.754;3.366;2023-02-01T11:28:28;11.60;99.90
20481;DHT22;10399;50.754;3.366;2023-02-01T11:31:00;11.60;99.90
20481;DHT22;10399;50.754;3.366;2023-02-01T11:33:34;11.50;99.90
20481;DHT22;10399;50.754;3.366;2023-02-01T11:36:12;11.50;99.90
20481;DHT22;10399;50.754;3.366;2023-02-01T11:38:47;11.60;99.90
20481;DHT22;10399;50.754;3.366;2023-02-01T11:41:24;11.90;99.90
20481;DHT22;10399;50.754;3.366;2023-02-01T11:43:53;12.10;99.90
20481;DHT22;10399;50.754;3.366;2023-02-01T11:46:23;12.10;99.90
20481;DHT22;10399;50.754;3.366;2023-02-01T11:48:55;12.10;99.90
20481;DHT22;10399;50.754;3.366;2023-02-01T11:51:42;12.30;99.90
20481;DHT22;10399;50.754;3.366;2023-02-01T11:57:41;12.10;99.90
20481;DHT22;10399;50.754;3.366;2023-02-01T12:05:59;11.60;99.90
20481;DHT22;10399;50.754;3.366;2023-02-01T12:11:20;11.40;99.90
20481;DHT22;10399;50.754;3.366;2023-02-01T12:16:44;11.30;99.90
20481;DHT22;10399;50.754;3.366;2023-02-01T12:22:52;11.00;99.90
20481;DHT22;10399;50.754;3.366;2023-02-01T12:28:21;10.90;99.90
20481;DHT22;10399;50.754;3.366;2023-02-01T12:31:11;10.80;99.90
20481;DHT22;10399;50.754;3.366;2023-02-01T12:39:32;11.30;99.90
20481;DHT22;10399;50.754;3.366;2023-02-01T12:42:15;11.50;99.90
20481;DHT22;10399;50.754;3.366;2023-02-01T12:47:39;11.50;99.90
20481;DHT22;10399;50.754;3.366;2023-02-01T12:50:32;11.50;99.90
20481;DHT22;10399;50.754;3.366;2023-02-01T12:53:27;11.50;99.90
20481;DHT22;10399;50.754;3.366;2023-02-01T12:55:58;11.80;99.90
20481;DHT22;10399;50.754;3.366;2023-02-01T13:01:06;11.60;99.90
20481;DHT22;10399;50.754;3.366;2023-02-01T13:04:14;11.80;99.90
20481;DHT22;10399;50.754;3.366;2023-02-01T13:06:47;12.10;99.90
20481;DHT22;10399;50.754;3.366;2023-02-01T13:09:34;12.10;99.90
20481;DHT22;10399;50.754;3.366;2023-02-01T13:12:17;12.10;99.90
20481;DHT22;10399;50.754;3.366;2023-02-01T13:15:00;12.00;99.90
20481;DHT22;10399;50.754;3.366;2023-02-01T13:17:30;12.00;99.90
20481;DHT22;10399;50.754;3.366;2023-02-01T13:22:43;12.00;99.90
20481;DHT22;10399;50.754;3.366;2023-02-01T13:25:13;11.90;99.90
20481;DHT22;10399;50.754;3.366;2023-02-01T13:27:43;11.90;99.90
20481;DHT22;10399;50.754;3.366;2023-02-01T13:41:31;11.80;99.90
20481;DHT22;10399;50.754;3.366;2023-02-01T13:44:08;11.80;99.90
20481;DHT22;10399;50.754;3.366;2023-02-01T13:46:42;11.80;99.90
20481;DHT22;10399;50.754;3.366;2023-02-01T13:49:23;11.80;99.90
20481;DHT22;10399;50.754;3.366;2023-02-01T13:51:53;11.80;99.90
20481;DHT22;10399;50.754;3.366;2023-02-01T13:54:38;11.70;99.90
20481;DHT22;10399;50.754;3.366;2023-02-01T13:57:30;11.50;99.90
20481;DHT22;10399;50.754;3.366;2023-02-01T14:00:31;11.50;99.90
20481;DHT22;10399;50.754;3.366;2023-02-01T14:03:06;11.30;99.90
20481;DHT22;10399;50.754;3.366;2023-02-01T14:10:54;11.30;99.90
20481;DHT22;10399;50.754;3.366;2023-02-01T14:13:32;11.10;99.90
20481;DHT22;10399;50.754;3.366;2023-02-01T14:21:19;11.10;99.90
20481;DHT22;10399;50.754;3.366;2023-02-01T14:29:26;11.20;99.90
20481;DHT22;10399;50.754;3.366;2023-02-01T14:32:20;11.20;99.90
20481;DHT22;10399;50.754;3.366;2023-02-01T14:34:51;11.10;99.90
20481;DHT22;10399;50.754;3.366;2023-02-01T14:55:50;11.10;99.90
20481;DHT22;10399;50.754;3.366;2023-02-01T15:01:28;11.00;99.90
20481;DHT22;10399;50.754;3.366;2023-02-01T15:04:01;11.10;99.90
20481;DHT22;10399;50.754;3.366;2023-02-01T15:09:25;10.90;99.90
20481;DHT22;10399;50.754;3.366;2023-02-01T15:12:16;11.00;99.90
20481;DHT22;10399;50.754;3.366;2023-02-01T15:15:14;11.00;99.90
20481;DHT22;10399;50.754;3.366;2023-02-01T15:18:14;11.10;99.90
20481;DHT22;10399;50.754;3.366;2023-02-01T15:20:42;10.90;99.90
20481;DHT22;10399;50.754;3.366;2023-02-01T15:23:30;10.90;99.90
20481;DHT22;10399;50.754;3.366;2023-02-01T15:25:57;11.00;99.90
20481;DHT22;10399;50.754;3.366;2023-02-01T15:28:24;10.80;99.90
20481;DHT22;10399;50.754;3.366;2023-02-01T15:31:04;10.90;99.90
20481;DHT22;10399;50.754;3.366;2023-02-01T15:33:32;10.90;99.90
20481;DHT22;10399;50.754;3.366;2023-02-01T15:38:38;10.80;99.90
20481;DHT22;10399;50.754;3.366;2023-02-01T15:44:12;10.90;99.90
20481;DHT22;10399;50.754;3.366;2023-02-01T15:46:46;10.80;99.90
20481;DHT22;10399;50.754;3.366;2023-02-01T15:49:30;10.90;99.90
20481;DHT22;10399;50.754;3.366;2023-02-01T15:52:00;10.90;99.90
20481;DHT22;10399;50.754;3.366;2023-02-01T15:54:45;10.90;99.90
20481;DHT22;10399;50.754;3.366;2023-02-01T15:57:20;10.70;99.90
20481;DHT22;10399;50.754;3.366;2023-02-01T15:59:49;10.60;99.90
20481;DHT22;10399;50.754;3.366;2023-02-01T16:02:36;10.40;99.90
20481;DHT22;10399;50.754;3.366;2023-02-01T16:05:21;10.30;99.90
20481;DHT22;10399;50.754;3.366;2023-02-01T16:07:59;10.30;99.90
20481;DHT22;10399;50.754;3.366;2023-02-01T16:10:31;10.30;99.90
20481;DHT22;10399;50.754;3.366;2023-02-01T16:13:04;10.20;99.90
20481;DHT22;10399;50.754;3.366;2023-02-01T16:15:31;10.10;99.90
20481;DHT22;10399;50.754;3.366;2023-02-01T16:17:58;10.10;99.90
20481;DHT22;10399;50.754;3.366;2023-02-01T16:20:25;10.00;99.90
20481;DHT22;10399;50.754;3.366;2023-02-01T16:22:53;10.10;99.90
20481;DHT22;10399;50.754;3.366;2023-02-01T16:25:20;10.00;99.90
20481;DHT22;10399;50.754;3.366;2023-02-01T16:27:47;10.00;99.90
20481;DHT22;10399;50.754;3.366;2023-02-01T16:30:15;9.90;99.90
20481;DHT22;10399;50.754;3.366;2023-02-01T16:32:42;10.00;99.90
20481;DHT22;10399;50.754;3.366;2023-02-01T16:35:22;10.00;99.90
20481;DHT22;10399;50.754;3.366;2023-02-01T16:37:50;9.90;99.90
20481;DHT22;10399;50.754;3.366;2023-02-01T16:40:19;9.90;99.90
20481;DHT22;10399;50.754;3.366;2023-02-01T16:42:51;9.90;99.90
20481;DHT22;10399;50.754;3.366;2023-02-01T16:45:19;9.90;99.90
20481;DHT22;10399;50.754;3.366;2023-02-01T16:47:49;9.80;99.90
20481;DHT22;10399;50.754;3.366;2023-02-01T16:50:24;9.80;99.90
20481;DHT22;10399;50.754;3.366;2023-02-01T16:52:52;10.10;99.90
20481;DHT22;10399;50.754;3.366;2023-02-01T16:55:21;10.30;99.90
20481;DHT22;10399;50.754;3.366;2023-02-01T16:57:49;10.20;99.90
20481;DHT22;10399;50.754;3.366;2023-02-01T17:00:17;10.20;99.90
20481;DHT22;10399;50.754;3.366;2023-02-01T17:02:52;10.10;99.90
20481;DHT22;10399;50.754;3.366;2023-02-01T17:05:20;10.10;99.90
20481;DHT22;10399;50.754;3.366;2023-02-01T17:07:48;10.00;99.90
20481;DHT22;10399;50.754;3.366;2023-02-01T17:10:22;10.10;99.90
20481;DHT22;10399;50.754;3.366;2023-02-01T17:13:04;10.10;99.90
20481;DHT22;10399;50.754;3.366;2023-02-01T17:15:34;10.10;99.90
20481;DHT22;10399;50.754;3.366;2023-02-01T17:18:02;10.10;99.90
20481;DHT22;10399;50.754;3.366;2023-02-01T17:20:30;10.10;99.90
20481;DHT22;10399;50.754;3.366;2023-02-01T17:22:59;10.10;99.90
20481;DHT22;10399;50.754;3.366;2023-02-01T17:25:27;10.10;99.90
20481;DHT22;10399;50.754;3.366;2023-02-01T17:27:55;10.10;99.90
20481;DHT22;10399;50.754;3.366;2023-02-01T17:30:22;10.10;99.90
20481;DHT22;10399;50.754;3.366;2023-02-01T17:32:49;10.00;99.90
20481;DHT22;10399;50.754;3.366;2023-02-01T17:35:22;10.00;99.90
20481;DHT22;10399;50.754;3.366;2023-02-01T17:37:51;10.10;99.90
20481;DHT22;10399;50.754;3.366;2023-02-01T17:40:18;10.10;99.90
20481;DHT22;10399;50.754;3.366;2023-02-01T17:42:45;10.00;99.90
20481;DHT22;10399;50.754;3.366;2023-02-01T17:48:05;9.90;99.90
20481;DHT22;10399;50.754;3.366;2023-02-01T17:50:35;9.80;99.90
20481;DHT22;10399;50.754;3.366;2023-02-01T17:53:04;9.90;99.90
20481;DHT22;10399;50.754;3.366;2023-02-01T17:55:39;9.90;99.90
20481;DHT22;10399;50.754;3.366;2023-02-01T17:58:06;9.90;99.90
20481;DHT22;10399;50.754;3.366;2023-02-01T18:00:33;10.00;99.90
20481;DHT22;10399;50.754;3.366;2023-02-01T18:03:03;10.00;99.90
20481;DHT22;10399;50.754;3.366;2023-02-01T18:05:41;9.90;99.90
20481;DHT22;10399;50.754;3.366;2023-02-01T18:08:10;9.80;99.90
20481;DHT22;10399;50.754;3.366;2023-02-01T18:10:38;9.70;99.90
20481;DHT22;10399;50.754;3.366;2023-02-01T18:13:05;9.80;99.90
20481;DHT22;10399;50.754;3.366;2023-02-01T18:15:32;9.70;99.90
20481;DHT22;10399;50.754;3.366;2023-02-01T18:17:59;9.70;99.90
20481;DHT22;10399;50.754;3.366;2023-02-01T18:20:26;9.80;99.90
20481;DHT22;10399;50.754;3.366;2023-02-01T18:22:54;9.70;99.90